sensor_id;sensor_type;location;lat;lon;timestamp;P1;durP1;ratioP1;P2;durP2;ratioP2
4831;SDS011;2430;51.322;7.864;2023-02-17T00:01:42;6.23;;;3.83;;
4831;SDS011;2430;51.322;7.864;2023-02-17T00:04:10;6.07;;;4.20;;
4831;SDS011;2430;51.322;7.864;2023-02-17T00:06:37;6.73;;;4.20;;
4831;SDS011;2430;51.322;7.864;2023-02-17T00:09:03;8.27;;;5.50;;
4831;SDS011;2430;51.322;7.864;2023-02-17T00:11:30;8.13;;;5.17;;
4831;SDS011;2430;51.322;7.864;2023-02-17T00:13:58;8.00;;;4.80;;
4831;SDS011;2430;51.322;7.864;2023-02-17T00:16:25;5.70;;;4.57;;
4831;SDS011;2430;51.322;7.864;2023-02-17T00:18:52;7.17;;;5.30;;
4831;SDS011;2430;51.322;7.864;2023-02-17T00:21:20;6.07;;;5.40;;
4831;SDS011;2430;51.322;7.864;2023-02-17T00:23:48;6.93;;;5.90;;
4831;SDS011;2430;51.322;7.864;2023-02-17T00:26:15;5.07;;;4.20;;
4831;SDS011;2430;51.322;7.864;2023-02-17T00:28:41;5.47;;;4.50;;
4831;SDS011;2430;51.322;7.864;2023-02-17T00:31:10;10.13;;;6.53;;
4831;SDS011;2430;51.322;7.864;2023-02-17T00:33:36;7.97;;;5.80;;
4831;SDS011;2430;51.322;7.864;2023-02-17T00:36:03;7.23;;;5.20;;
4831;SDS011;2430;51.322;7.864;2023-02-17T00:38:30;11.20;;;7.47;;
4831;SDS011;2430;51.322;7.864;2023-02-17T00:40:57;5.93;;;5.43;;
4831;SDS011;2430;51.322;7.864;2023-02-17T00:43:23;11.43;;;6.60;;
4831;SDS011;2430;51.322;7.864;2023-02-17T00:45:49;12.40;;;7.53;;
4831;SDS011;2430;51.322;7.864;2023-02-17T00:48:17;12.13;;;7.90;;
4831;SDS011;2430;51.322;7.864;2023-02-17T00:50:44;13.90;;;9.00;;
4831;SDS011;2430;51.322;7.864;2023-02-17T00:53:10;16.50;;;6.67;;
4831;SDS011;2430;51.322;7.864;2023-02-17T00:55:37;8.47;;;6.60;;
4831;SDS011;2430;51.322;7.864;2023-02-17T00:58:03;9.30;;;7.77;;
4831;SDS011;2430;51.322;7.864;2023-02-17T01:00:30;10.57;;;8.00;;
4831;SDS011;2430;51.322;7.864;2023-02-17T01:02:56;11.93;;;7.03;;
4831;SDS011;2430;51.322;7.864;2023-02-17T01:05:24;11.50;;;7.70;;
4831;SDS011;2430;51.322;7.864;2023-02-17T01:07:51;8.43;;;7.37;;
4831;SDS011;2430;51.322;7.864;2023-02-17T01:10:17;11.10;;;7.63;;
4831;SDS011;2430;51.322;7.864;2023-02-17T01:12:43;10.00;;;7.37;;
4831;SDS011;2430;51.322;7.864;2023-02-17T01:15:10;9.03;;;7.07;;
4831;SDS011;2430;51.322;7.864;2023-02-17T01:17:36;10.60;;;7.23;;
4831;SDS011;2430;51.322;7.864;2023-02-17T01:20:03;15.40;;;8.00;;
4831;SDS011;2430;51.322;7.864;2023-02-17T01:22:31;7.73;;;6.73;;
4831;SDS011;2430;51.322;7.864;2023-02-17T01:24:58;12.73;;;7.77;;
4831;SDS011;2430;51.322;7.864;2023-02-17T01:27:24;11.47;;;8.27;;
4831;SDS011;2430;51.322;7.864;2023-02-17T01:29:51;13.10;;;6.00;;
4831;SDS011;2430;51.322;7.864;2023-02-17T01:32:18;14.70;;;8.60;;
4831;SDS011;2430;51.322;7.864;2023-02-17T01:34:45;10.60;;;6.80;;
4831;SDS011;2430;51.322;7.864;2023-02-17T01:37:12;21.77;;;7.07;;
4831;SDS011;2430;51.322;7.864;2023-02-17T01:39:40;11.97;;;8.30;;
4831;SDS011;2430;51.322;7.864;2023-02-17T01:42:08;9.20;;;6.70;;
4831;SDS011;2430;51.322;7.864;2023-02-17T01:47:18;8.30;;;5.93;;
4831;SDS011;2430;51.322;7.864;2023-02-17T01:49:45;11.33;;;6.70;;
4831;SDS011;2430;51.322;7.864;2023-02-17T01:52:12;11.43;;;6.70;;
4831;SDS011;2430;51.322;7.864;2023-02-17T01:54:43;14.10;;;7.77;;
4831;SDS011;2430;51.322;7.864;2023-02-17T01:57:10;9.47;;;7.03;;
4831;SDS011;2430;51.322;7.864;2023-02-17T01:59:38;7.40;;;6.20;;
4831;SDS011;2430;51.322;7.864;2023-02-17T02:02:06;22.00;;;8.57;;
4831;SDS011;2430;51.322;7.864;2023-02-17T02:04:33;8.37;;;7.10;;
4831;SDS011;2430;51.322;7.864;2023-02-17T02:07:01;10.57;;;6.60;;
4831;SDS011;2430;51.322;7.864;2023-02-17T02:09:29;8.93;;;7.13;;
4831;SDS011;2430;51.322;7.864;2023-02-17T02:11:57;7.77;;;6.57;;
4831;SDS011;2430;51.322;7.864;2023-02-17T02:14:25;11.40;;;6.47;;
4831;SDS011;2430;51.322;7.864;2023-02-17T02:16:53;8.10;;;6.33;;
4831;SDS011;2430;51.322;7.864;2023-02-17T02:19:31;9.07;;;6.97;;
4831;SDS011;2430;51.322;7.864;2023-02-17T02:24:48;10.93;;;7.13;;
4831;SDS011;2430;51.322;7.864;2023-02-17T02:33:03;10.60;;;6.30;;
4831;SDS011;2430;51.322;7.864;2023-02-17T02:35:33;7.93;;;6.27;;
4831;SDS011;2430;51.322;7.864;2023-02-17T02:38:02;7.50;;;5.50;;
4831;SDS011;2430;51.322;7.864;2023-02-17T02:40:31;8.30;;;6.20;;
4831;SDS011;2430;51.322;7.864;2023-02-17T02:42:58;10.30;;;7.50;;
4831;SDS011;2430;51.322;7.864;2023-02-17T02:45:25;8.07;;;7.23;;
4831;SDS011;2430;51.322;7.864;2023-02-17T02:47:52;6.93;;;6.20;;
4831;SDS011;2430;51.322;7.864;2023-02-17T02:50:22;6.03;;;4.80;;
4831;SDS011;2430;51.322;7.864;2023-02-17T02:52:56;9.13;;;5.17;;
4831;SDS011;2430;51.322;7.864;2023-02-17T02:55:27;8.10;;;5.60;;
4831;SDS011;2430;51.322;7.864;2023-02-17T02:57:57;12.43;;;6.00;;
4831;SDS011;2430;51.322;7.864;2023-02-17T03:00:29;7.90;;;6.10;;
4831;SDS011;2430;51.322;7.864;2023-02-17T03:02:58;8.80;;;5.80;;
4831;SDS011;2430;51.322;7.864;2023-02-17T03:05:31;8.03;;;5.80;;
4831;SDS011;2430;51.322;7.864;2023-02-17T03:08:01;7.57;;;6.00;;
4831;SDS011;2430;51.322;7.864;2023-02-17T03:10:29;6.97;;;5.10;;
4831;SDS011;2430;51.322;7.864;2023-02-17T03:12:55;8.23;;;5.87;;
4831;SDS011;2430;51.322;7.864;2023-02-17T03:15:24;7.03;;;5.50;;
4831;SDS011;2430;51.322;7.864;2023-02-17T03:17:52;8.00;;;6.33;;
4831;SDS011;2430;51.322;7.864;2023-02-17T03:20:21;8.27;;;6.60;;
4831;SDS011;2430;51.322;7.864;2023-02-17T03:22:50;8.23;;;6.07;;
4831;SDS011;2430;51.322;7.864;2023-02-17T03:25:16;9.00;;;5.50;;
4831;SDS011;2430;51.322;7.864;2023-02-17T03:27:43;7.20;;;4.80;;
4831;SDS011;2430;51.322;7.864;2023-02-17T03:30:10;5.50;;;4.93;;
4831;SDS011;2430;51.322;7.864;2023-02-17T03:32:37;8.13;;;5.10;;
4831;SDS011;2430;51.322;7.864;2023-02-17T03:35:04;6.80;;;5.07;;
4831;SDS011;2430;51.322;7.864;2023-02-17T03:37:30;7.57;;;5.00;;
4831;SDS011;2430;51.322;7.864;2023-02-17T03:39:59;6.17;;;5.47;;
4831;SDS011;2430;51.322;7.864;2023-02-17T03:42:25;6.23;;;5.00;;
4831;SDS011;2430;51.322;7.864;2023-02-17T03:44:55;10.33;;;7.20;;
4831;SDS011;2430;51.322;7.864;2023-02-17T03:47:22;5.93;;;5.20;;
4831;SDS011;2430;51.322;7.864;2023-02-17T03:49:49;7.33;;;5.47;;
4831;SDS011;2430;51.322;7.864;2023-02-17T03:52:16;11.90;;;5.30;;
4831;SDS011;2430;51.322;7.864;2023-02-17T03:54:44;6.27;;;5.63;;
4831;SDS011;2430;51.322;7.864;2023-02-17T03:57:12;4.50;;;3.77;;
4831;SDS011;2430;51.322;7.864;2023-02-17T03:59:40;11.07;;;5.80;;
4831;SDS011;2430;51.322;7.864;2023-02-17T04:02:06;9.53;;;5.80;;
4831;SDS011;2430;51.322;7.864;2023-02-17T04:04:33;5.90;;;4.27;;
4831;SDS011;2430;51.322;7.864;2023-02-17T04:07:04;7.20;;;4.80;;
4831;SDS011;2430;51.322;7.864;2023-02-17T04:09:31;4.97;;;4.50;;
4831;SDS011;2430;51.322;7.864;2023-02-17T04:11:58;5.80;;;4.23;;
4831;SDS011;2430;51.322;7.864;2023-02-17T04:14:26;9.43;;;5.90;;
4831;SDS011;2430;51.322;7.864;2023-02-17T04:16:53;7.23;;;4.83;;
4831;SDS011;2430;51.322;7.864;2023-02-17T04:19:19;6.03;;;5.13;;
4831;SDS011;2430;51.322;7.864;2023-02-17T04:21:45;5.77;;;4.70;;
4831;SDS011;2430;51.322;7.864;2023-02-17T04:24:12;7.13;;;4.87;;
4831;SDS011;2430;51.322;7.864;2023-02-17T04:26:38;5.43;;;4.77;;
4831;SDS011;2430;51.322;7.864;2023-02-17T04:29:05;4.80;;;4.00;;
4831;SDS011;2430;51.322;7.864;2023-02-17T04:31:33;4.70;;;4.30;;
4831;SDS011;2430;51.322;7.864;2023-02-17T04:34:00;8.47;;;5.33;;
4831;SDS011;2430;51.322;7.864;2023-02-17T04:36:27;4.30;;;3.90;;
4831;SDS011;2430;51.322;7.864;2023-02-17T04:38:57;5.37;;;4.57;;
4831;SDS011;2430;51.322;7.864;2023-02-17T04:41:24;6.73;;;5.07;;
4831;SDS011;2430;51.322;7.864;2023-02-17T04:43:51;5.93;;;5.20;;
4831;SDS011;2430;51.322;7.864;2023-02-17T04:46:17;5.97;;;4.17;;
4831;SDS011;2430;51.322;7.864;2023-02-17T04:48:46;10.17;;;5.40;;
4831;SDS011;2430;51.322;7.864;2023-02-17T04:51:12;5.43;;;4.60;;
4831;SDS011;2430;51.322;7.864;2023-02-17T04:53:39;6.00;;;4.43;;
4831;SDS011;2430;51.322;7.864;2023-02-17T04:56:06;5.77;;;4.53;;
4831;SDS011;2430;51.322;7.864;2023-02-17T04:58:33;5.33;;;4.30;;
4831;SDS011;2430;51.322;7.864;2023-02-17T05:01:00;7.63;;;5.33;;
4831;SDS011;2430;51.322;7.864;2023-02-17T05:03:27;4.97;;;4.47;;
4831;SDS011;2430;51.322;7.864;2023-02-17T05:05:56;6.73;;;4.90;;
4831;SDS011;2430;51.322;7.864;2023-02-17T05:08:23;9.53;;;4.80;;
4831;SDS011;2430;51.322;7.864;2023-02-17T05:10:49;3.93;;;3.63;;
4831;SDS011;2430;51.322;7.864;2023-02-17T05:13:16;7.90;;;4.77;;
4831;SDS011;2430;51.322;7.864;2023-02-17T05:15:43;9.40;;;5.20;;
4831;SDS011;2430;51.322;7.864;2023-02-17T05:18:10;7.37;;;5.20;;
4831;SDS011;2430;51.322;7.864;2023-02-17T05:20:37;6.37;;;4.90;;
4831;SDS011;2430;51.322;7.864;2023-02-17T05:23:05;9.73;;;4.97;;
4831;SDS011;2430;51.322;7.864;2023-02-17T05:25:32;5.30;;;4.80;;
4831;SDS011;2430;51.322;7.864;2023-02-17T05:27:59;10.77;;;5.70;;
4831;SDS011;2430;51.322;7.864;2023-02-17T05:30:25;5.77;;;4.70;;
4831;SDS011;2430;51.322;7.864;2023-02-17T05:32:52;4.10;;;3.70;;
4831;SDS011;2430;51.322;7.864;2023-02-17T05:35:18;4.13;;;3.77;;
4831;SDS011;2430;51.322;7.864;2023-02-17T05:37:45;8.30;;;4.20;;
4831;SDS011;2430;51.322;7.864;2023-02-17T05:40:13;10.40;;;5.53;;
4831;SDS011;2430;51.322;7.864;2023-02-17T05:42:40;5.50;;;4.77;;
4831;SDS011;2430;51.322;7.864;2023-02-17T05:45:07;10.93;;;5.40;;
4831;SDS011;2430;51.322;7.864;2023-02-17T05:47:34;7.27;;;4.40;;
4831;SDS011;2430;51.322;7.864;2023-02-17T05:50:01;7.20;;;3.90;;
4831;SDS011;2430;51.322;7.864;2023-02-17T05:52:28;10.80;;;6.00;;
4831;SDS011;2430;51.322;7.864;2023-02-17T05:54:55;5.60;;;4.50;;
4831;SDS011;2430;51.322;7.864;2023-02-17T05:57:23;5.00;;;4.50;;
4831;SDS011;2430;51.322;7.864;2023-02-17T05:59:50;12.60;;;4.50;;
4831;SDS011;2430;51.322;7.864;2023-02-17T06:02:16;7.33;;;5.30;;
4831;SDS011;2430;51.322;7.864;2023-02-17T06:04:43;5.50;;;4.70;;
4831;SDS011;2430;51.322;7.864;2023-02-17T06:07:09;4.87;;;4.20;;
4831;SDS011;2430;51.322;7.864;2023-02-17T06:09:36;7.03;;;4.23;;
4831;SDS011;2430;51.322;7.864;2023-02-17T06:12:02;7.27;;;4.67;;
4831;SDS011;2430;51.322;7.864;2023-02-17T06:14:30;3.90;;;3.50;;
4831;SDS011;2430;51.322;7.864;2023-02-17T06:16:57;6.23;;;4.83;;
4831;SDS011;2430;51.322;7.864;2023-02-17T06:19:24;7.27;;;5.27;;
4831;SDS011;2430;51.322;7.864;2023-02-17T06:21:50;7.47;;;4.33;;
4831;SDS011;2430;51.322;7.864;2023-02-17T06:24:17;9.23;;;6.27;;
4831;SDS011;2430;51.322;7.864;2023-02-17T06:26:43;6.00;;;4.30;;
4831;SDS011;2430;51.322;7.864;2023-02-17T06:29:10;5.67;;;4.97;;
4831;SDS011;2430;51.322;7.864;2023-02-17T06:31:37;4.23;;;3.83;;
4831;SDS011;2430;51.322;7.864;2023-02-17T06:34:05;8.53;;;4.43;;
4831;SDS011;2430;51.322;7.864;2023-02-17T06:36:31;6.00;;;4.10;;
4831;SDS011;2430;51.322;7.864;2023-02-17T06:38:58;5.70;;;4.43;;
4831;SDS011;2430;51.322;7.864;2023-02-17T06:41:24;6.13;;;5.10;;
4831;SDS011;2430;51.322;7.864;2023-02-17T06:43:50;8.73;;;5.50;;
4831;SDS011;2430;51.322;7.864;2023-02-17T06:46:17;6.07;;;4.90;;
4831;SDS011;2430;51.322;7.864;2023-02-17T06:48:45;8.90;;;5.13;;
4831;SDS011;2430;51.322;7.864;2023-02-17T06:51:11;7.33;;;4.17;;
4831;SDS011;2430;51.322;7.864;2023-02-17T06:53:38;7.27;;;4.47;;
4831;SDS011;2430;51.322;7.864;2023-02-17T06:56:04;6.70;;;5.70;;
4831;SDS011;2430;51.322;7.864;2023-02-17T06:58:31;6.73;;;5.23;;
4831;SDS011;2430;51.322;7.864;2023-02-17T07:00:59;7.33;;;4.90;;
4831;SDS011;2430;51.322;7.864;2023-02-17T07:03:25;9.13;;;5.83;;
4831;SDS011;2430;51.322;7.864;2023-02-17T07:05:56;6.13;;;5.30;;
4831;SDS011;2430;51.322;7.864;2023-02-17T07:08:23;7.43;;;4.60;;
4831;SDS011;2430;51.322;7.864;2023-02-17T07:10:49;5.50;;;4.73;;
4831;SDS011;2430;51.322;7.864;2023-02-17T07:13:16;7.00;;;4.60;;
4831;SDS011;2430;51.322;7.864;2023-02-17T07:15:42;7.10;;;4.50;;
4831;SDS011;2430;51.322;7.864;2023-02-17T07:18:09;6.10;;;5.50;;
4831;SDS011;2430;51.322;7.864;2023-02-17T07:20:35;5.00;;;4.40;;
4831;SDS011;2430;51.322;7.864;2023-02-17T07:23:03;5.30;;;4.53;;
4831;SDS011;2430;51.322;7.864;2023-02-17T07:25:30;7.50;;;4.90;;
4831;SDS011;2430;51.322;7.864;2023-02-17T07:27:58;5.77;;;4.70;;
4831;SDS011;2430;51.322;7.864;2023-02-17T07:30:25;6.20;;;4.90;;
4831;SDS011;2430;51.322;7.864;2023-02-17T07:32:51;7.70;;;4.80;;
4831;SDS011;2430;51.322;7.864;2023-02-17T07:35:18;6.03;;;4.60;;
4831;SDS011;2430;51.322;7.864;2023-02-17T07:37:44;6.43;;;4.83;;
4831;SDS011;2430;51.322;7.864;2023-02-17T07:40:12;8.70;;;6.20;;
4831;SDS011;2430;51.322;7.864;2023-02-17T07:42:39;4.50;;;4.07;;
4831;SDS011;2430;51.322;7.864;2023-02-17T07:45:06;6.13;;;5.27;;
4831;SDS011;2430;51.322;7.864;2023-02-17T07:47:32;10.03;;;5.83;;
4831;SDS011;2430;51.322;7.864;2023-02-17T07:49:59;10.30;;;4.60;;
4831;SDS011;2430;51.322;7.864;2023-02-17T07:52:25;11.90;;;5.30;;
4831;SDS011;2430;51.322;7.864;2023-02-17T07:54:51;4.87;;;4.37;;
4831;SDS011;2430;51.322;7.864;2023-02-17T07:57:19;8.20;;;4.53;;
4831;SDS011;2430;51.322;7.864;2023-02-17T07:59:46;12.13;;;4.87;;
4831;SDS011;2430;51.322;7.864;2023-02-17T08:02:12;5.07;;;4.57;;
4831;SDS011;2430;51.322;7.864;2023-02-17T08:04:39;4.47;;;3.87;;
4831;SDS011;2430;51.322;7.864;2023-02-17T08:07:05;5.77;;;4.10;;
4831;SDS011;2430;51.322;7.864;2023-02-17T08:09:32;8.40;;;3.60;;
4831;SDS011;2430;51.322;7.864;2023-02-17T08:12:17;7.40;;;4.37;;
4831;SDS011;2430;51.322;7.864;2023-02-17T08:15:03;5.30;;;4.50;;
4831;SDS011;2430;51.322;7.864;2023-02-17T08:17:30;5.77;;;4.67;;
4831;SDS011;2430;51.322;7.864;2023-02-17T08:19:57;4.23;;;3.87;;
4831;SDS011;2430;51.322;7.864;2023-02-17T08:22:23;3.10;;;2.90;;
4831;SDS011;2430;51.322;7.864;2023-02-17T08:24:50;4.33;;;3.93;;
4831;SDS011;2430;51.322;7.864;2023-02-17T08:27:16;4.13;;;3.63;;
4831;SDS011;2430;51.322;7.864;2023-02-17T08:29:43;7.57;;;4.30;;
4831;SDS011;2430;51.322;7.864;2023-02-17T08:32:11;3.57;;;3.27;;
4831;SDS011;2430;51.322;7.864;2023-02-17T08:34:38;3.90;;;3.30;;
4831;SDS011;2430;51.322;7.864;2023-02-17T08:37:05;4.50;;;3.80;;
4831;SDS011;2430;51.322;7.864;2023-02-17T08:39:32;4.60;;;3.63;;
4831;SDS011;2430;51.322;7.864;2023-02-17T08:41:59;6.77;;;4.30;;
4831;SDS011;2430;51.322;7.864;2023-02-17T08:44:25;4.10;;;3.23;;
4831;SDS011;2430;51.322;7.864;2023-02-17T08:46:52;7.33;;;4.17;;
4831;SDS011;2430;51.322;7.864;2023-02-17T08:49:20;6.00;;;3.97;;
4831;SDS011;2430;51.322;7.864;2023-02-17T08:51:47;4.97;;;3.30;;
4831;SDS011;2430;51.322;7.864;2023-02-17T08:54:14;7.00;;;4.27;;
4831;SDS011;2430;51.322;7.864;2023-02-17T08:56:41;6.50;;;4.73;;
4831;SDS011;2430;51.322;7.864;2023-02-17T08:59:08;5.23;;;3.90;;
4831;SDS011;2430;51.322;7.864;2023-02-17T09:01:35;8.50;;;4.10;;
4831;SDS011;2430;51.322;7.864;2023-02-17T09:04:02;5.30;;;4.00;;
4831;SDS011;2430;51.322;7.864;2023-02-17T09:06:33;5.70;;;3.77;;
4831;SDS011;2430;51.322;7.864;2023-02-17T09:09:00;4.33;;;3.93;;
4831;SDS011;2430;51.322;7.864;2023-02-17T09:11:27;20.87;;;4.73;;
4831;SDS011;2430;51.322;7.864;2023-02-17T09:13:53;5.20;;;4.50;;
4831;SDS011;2430;51.322;7.864;2023-02-17T09:16:20;4.97;;;4.00;;
4831;SDS011;2430;51.322;7.864;2023-02-17T09:18:48;9.27;;;5.20;;
4831;SDS011;2430;51.322;7.864;2023-02-17T09:21:14;6.50;;;4.90;;
4831;SDS011;2430;51.322;7.864;2023-02-17T09:23:43;8.07;;;5.70;;
4831;SDS011;2430;51.322;7.864;2023-02-17T09:26:11;5.67;;;4.30;;
4831;SDS011;2430;51.322;7.864;2023-02-17T09:28:37;7.40;;;5.00;;
4831;SDS011;2430;51.322;7.864;2023-02-17T09:31:07;8.23;;;5.87;;
4831;SDS011;2430;51.322;7.864;2023-02-17T09:33:34;11.97;;;5.00;;
4831;SDS011;2430;51.322;7.864;2023-02-17T09:36:00;6.83;;;5.80;;
4831;SDS011;2430;51.322;7.864;2023-02-17T09:38:27;10.60;;;5.17;;
4831;SDS011;2430;51.322;7.864;2023-02-17T09:40:55;8.50;;;5.47;;
4831;SDS011;2430;51.322;7.864;2023-02-17T09:43:25;10.33;;;5.77;;
4831;SDS011;2430;51.322;7.864;2023-02-17T09:45:55;5.80;;;3.97;;
4831;SDS011;2430;51.322;7.864;2023-02-17T09:48:23;5.93;;;4.07;;
4831;SDS011;2430;51.322;7.864;2023-02-17T09:50:54;14.97;;;5.47;;
4831;SDS011;2430;51.322;7.864;2023-02-17T09:53:23;8.63;;;5.17;;
4831;SDS011;2430;51.322;7.864;2023-02-17T09:55:52;9.63;;;4.53;;
4831;SDS011;2430;51.322;7.864;2023-02-17T09:58:21;6.23;;;4.20;;
4831;SDS011;2430;51.322;7.864;2023-02-17T10:00:50;7.43;;;4.33;;
4831;SDS011;2430;51.322;7.864;2023-02-17T10:03:19;5.63;;;4.53;;
4831;SDS011;2430;51.322;7.864;2023-02-17T10:05:48;8.87;;;5.13;;
4831;SDS011;2430;51.322;7.864;2023-02-17T10:08:17;6.40;;;4.73;;
4831;SDS011;2430;51.322;7.864;2023-02-17T10:10:45;6.67;;;4.80;;
4831;SDS011;2430;51.322;7.864;2023-02-17T10:13:14;6.30;;;4.77;;
4831;SDS011;2430;51.322;7.864;2023-02-17T10:15:45;6.13;;;4.10;;
4831;SDS011;2430;51.322;7.864;2023-02-17T10:18:15;4.40;;;4.00;;
4831;SDS011;2430;51.322;7.864;2023-02-17T10:20:43;5.73;;;3.87;;
4831;SDS011;2430;51.322;7.864;2023-02-17T10:23:12;7.40;;;3.77;;
4831;SDS011;2430;51.322;7.864;2023-02-17T10:25:45;6.20;;;4.07;;
4831;SDS011;2430;51.322;7.864;2023-02-17T10:28:16;4.33;;;3.57;;
4831;SDS011;2430;51.322;7.864;2023-02-17T10:30:46;4.80;;;3.83;;
4831;SDS011;2430;51.322;7.864;2023-02-17T10:33:16;7.83;;;4.60;;
4831;SDS011;2430;51.322;7.864;2023-02-17T10:35:53;6.80;;;4.43;;
4831;SDS011;2430;51.322;7.864;2023-02-17T10:38:27;4.60;;;4.10;;
4831;SDS011;2430;51.322;7.864;2023-02-17T10:40:56;4.13;;;3.40;;
4831;SDS011;2430;51.322;7.864;2023-02-17T10:43:25;14.50;;;5.00;;
4831;SDS011;2430;51.322;7.864;2023-02-17T10:45:55;6.80;;;3.57;;
4831;SDS011;2430;51.322;7.864;2023-02-17T10:48:23;3.80;;;3.23;;
4831;SDS011;2430;51.322;7.864;2023-02-17T10:50:57;4.47;;;3.60;;
4831;SDS011;2430;51.322;7.864;2023-02-17T10:53:26;4.57;;;4.10;;
4831;SDS011;2430;51.322;7.864;2023-02-17T10:55:55;5.37;;;3.20;;
4831;SDS011;2430;51.322;7.864;2023-02-17T10:58:24;3.53;;;3.20;;
4831;SDS011;2430;51.322;7.864;2023-02-17T11:00:53;5.37;;;3.83;;
4831;SDS011;2430;51.322;7.864;2023-02-17T11:03:23;5.40;;;3.57;;
4831;SDS011;2430;51.322;7.864;2023-02-17T11:05:54;3.63;;;2.90;;
4831;SDS011;2430;51.322;7.864;2023-02-17T11:08:29;4.13;;;3.20;;
4831;SDS011;2430;51.322;7.864;2023-02-17T11:11:00;3.50;;;3.00;;
4831;SDS011;2430;51.322;7.864;2023-02-17T11:13:30;3.43;;;2.93;;
4831;SDS011;2430;51.322;7.864;2023-02-17T11:15:57;3.40;;;2.70;;
4831;SDS011;2430;51.322;7.864;2023-02-17T11:18:26;3.17;;;2.67;;
4831;SDS011;2430;51.322;7.864;2023-02-17T11:20:58;2.70;;;2.40;;
4831;SDS011;2430;51.322;7.864;2023-02-17T11:23:25;6.97;;;3.23;;
4831;SDS011;2430;51.322;7.864;2023-02-17T11:25:56;2.83;;;2.47;;
4831;SDS011;2430;51.322;7.864;2023-02-17T11:28:23;3.63;;;2.67;;
4831;SDS011;2430;51.322;7.864;2023-02-17T11:30:50;3.80;;;2.57;;
4831;SDS011;2430;51.322;7.864;2023-02-17T11:33:19;2.20;;;2.00;;
4831;SDS011;2430;51.322;7.864;2023-02-17T11:35:49;3.10;;;2.10;;
4831;SDS011;2430;51.322;7.864;2023-02-17T11:38:17;3.83;;;2.53;;
4831;SDS011;2430;51.322;7.864;2023-02-17T11:40:50;1.90;;;1.77;;
4831;SDS011;2430;51.322;7.864;2023-02-17T11:43:17;1.77;;;1.53;;
4831;SDS011;2430;51.322;7.864;2023-02-17T11:45:46;11.60;;;1.70;;
4831;SDS011;2430;51.322;7.864;2023-02-17T11:48:22;2.30;;;1.93;;
4831;SDS011;2430;51.322;7.864;2023-02-17T11:50:54;3.40;;;2.20;;
4831;SDS011;2430;51.322;7.864;2023-02-17T11:53:25;2.20;;;2.00;;
4831;SDS011;2430;51.322;7.864;2023-02-17T11:56:00;14.00;;;1.73;;
4831;SDS011;2430;51.322;7.864;2023-02-17T11:58:33;2.17;;;1.50;;
4831;SDS011;2430;51.322;7.864;2023-02-17T12:01:03;1.60;;;1.50;;
4831;SDS011;2430;51.322;7.864;2023-02-17T12:03:42;3.83;;;2.07;;
4831;SDS011;2430;51.322;7.864;2023-02-17T12:06:16;4.67;;;2.27;;
4831;SDS011;2430;51.322;7.864;2023-02-17T12:08:47;1.73;;;1.47;;
4831;SDS011;2430;51.322;7.864;2023-02-17T12:11:17;2.20;;;1.50;;
4831;SDS011;2430;51.322;7.864;2023-02-17T12:13:48;3.47;;;2.20;;
4831;SDS011;2430;51.322;7.864;2023-02-17T12:16:20;2.53;;;1.80;;
4831;SDS011;2430;51.322;7.864;2023-02-17T12:18:55;2.70;;;2.07;;
4831;SDS011;2430;51.322;7.864;2023-02-17T12:21:31;2.27;;;1.60;;
4831;SDS011;2430;51.322;7.864;2023-02-17T12:24:04;2.17;;;1.97;;
4831;SDS011;2430;51.322;7.864;2023-02-17T12:26:38;1.47;;;1.30;;
4831;SDS011;2430;51.322;7.864;2023-02-17T12:29:19;3.63;;;1.70;;
4831;SDS011;2430;51.322;7.864;2023-02-17T12:31:51;2.43;;;1.97;;
4831;SDS011;2430;51.322;7.864;2023-02-17T12:34:24;1.43;;;1.27;;
4831;SDS011;2430;51.322;7.864;2023-02-17T12:36:52;2.20;;;1.37;;
4831;SDS011;2430;51.322;7.864;2023-02-17T12:39:21;3.27;;;1.90;;
4831;SDS011;2430;51.322;7.864;2023-02-17T12:41:50;1.63;;;1.40;;
4831;SDS011;2430;51.322;7.864;2023-02-17T12:44:19;2.17;;;1.30;;
4831;SDS011;2430;51.322;7.864;2023-02-17T12:46:46;2.97;;;1.67;;
4831;SDS011;2430;51.322;7.864;2023-02-17T12:49:15;2.27;;;1.50;;
4831;SDS011;2430;51.322;7.864;2023-02-17T12:51:44;5.27;;;1.40;;
4831;SDS011;2430;51.322;7.864;2023-02-17T12:54:16;1.80;;;1.40;;
4831;SDS011;2430;51.322;7.864;2023-02-17T12:56:48;1.50;;;1.23;;
4831;SDS011;2430;51.322;7.864;2023-02-17T12:59:17;5.10;;;1.80;;
4831;SDS011;2430;51.322;7.864;2023-02-17T13:01:51;1.60;;;1.30;;
4831;SDS011;2430;51.322;7.864;2023-02-17T13:04:19;2.80;;;1.90;;
4831;SDS011;2430;51.322;7.864;2023-02-17T13:06:50;2.57;;;1.80;;
4831;SDS011;2430;51.322;7.864;2023-02-17T13:09:23;4.20;;;2.03;;
4831;SDS011;2430;51.322;7.864;2023-02-17T13:11:50;1.80;;;1.60;;
4831;SDS011;2430;51.322;7.864;2023-02-17T13:14:23;2.10;;;1.90;;
4831;SDS011;2430;51.322;7.864;2023-02-17T13:16:50;1.77;;;1.57;;
4831;SDS011;2430;51.322;7.864;2023-02-17T13:19:25;3.03;;;2.00;;
4831;SDS011;2430;51.322;7.864;2023-02-17T13:21:53;2.43;;;1.87;;
4831;SDS011;2430;51.322;7.864;2023-02-17T13:24:30;3.03;;;2.00;;
4831;SDS011;2430;51.322;7.864;2023-02-17T13:27:08;1.87;;;1.67;;
4831;SDS011;2430;51.322;7.864;2023-02-17T13:29:34;2.50;;;2.00;;
4831;SDS011;2430;51.322;7.864;2023-02-17T13:32:02;2.20;;;1.70;;
4831;SDS011;2430;51.322;7.864;2023-02-17T13:34:30;8.43;;;1.93;;
4831;SDS011;2430;51.322;7.864;2023-02-17T13:36:57;2.20;;;2.00;;
4831;SDS011;2430;51.322;7.864;2023-02-17T13:39:33;2.20;;;2.00;;
4831;SDS011;2430;51.322;7.864;2023-02-17T13:42:00;1.50;;;1.30;;
4831;SDS011;2430;51.322;7.864;2023-02-17T13:44:27;1.60;;;1.30;;
4831;SDS011;2430;51.322;7.864;2023-02-17T13:46:55;6.17;;;1.80;;
4831;SDS011;2430;51.322;7.864;2023-02-17T13:49:23;2.80;;;2.00;;
4831;SDS011;2430;51.322;7.864;2023-02-17T13:51:51;5.27;;;2.40;;
4831;SDS011;2430;51.322;7.864;2023-02-17T13:54:18;3.13;;;1.37;;
4831;SDS011;2430;51.322;7.864;2023-02-17T13:56:50;2.57;;;1.67;;
4831;SDS011;2430;51.322;7.864;2023-02-17T13:59:22;2.30;;;1.43;;
4831;SDS011;2430;51.322;7.864;2023-02-17T14:01:50;1.60;;;1.40;;
4831;SDS011;2430;51.322;7.864;2023-02-17T14:04:19;4.70;;;1.80;;
4831;SDS011;2430;51.322;7.864;2023-02-17T14:06:46;7.33;;;2.73;;
4831;SDS011;2430;51.322;7.864;2023-02-17T14:09:18;5.43;;;1.93;;
4831;SDS011;2430;51.322;7.864;2023-02-17T14:11:44;12.10;;;2.47;;
4831;SDS011;2430;51.322;7.864;2023-02-17T14:14:12;2.30;;;2.10;;
4831;SDS011;2430;51.322;7.864;2023-02-17T14:16:39;3.93;;;1.70;;
4831;SDS011;2430;51.322;7.864;2023-02-17T14:19:08;4.33;;;2.97;;
4831;SDS011;2430;51.322;7.864;2023-02-17T14:21:35;3.57;;;2.27;;
4831;SDS011;2430;51.322;7.864;2023-02-17T14:24:02;5.60;;;1.80;;
4831;SDS011;2430;51.322;7.864;2023-02-17T14:26:30;3.17;;;2.40;;
4831;SDS011;2430;51.322;7.864;2023-02-17T14:28:57;7.93;;;2.10;;
4831;SDS011;2430;51.322;7.864;2023-02-17T14:31:25;5.93;;;2.03;;
4831;SDS011;2430;51.322;7.864;2023-02-17T14:33:55;4.73;;;2.00;;
4831;SDS011;2430;51.322;7.864;2023-02-17T14:36:26;3.80;;;1.87;;
4831;SDS011;2430;51.322;7.864;2023-02-17T14:38:53;4.87;;;1.63;;
4831;SDS011;2430;51.322;7.864;2023-02-17T14:41:20;5.40;;;2.37;;
4831;SDS011;2430;51.322;7.864;2023-02-17T14:43:46;4.60;;;2.40;;
4831;SDS011;2430;51.322;7.864;2023-02-17T14:46:13;3.13;;;1.90;;
4831;SDS011;2430;51.322;7.864;2023-02-17T14:48:44;2.47;;;2.23;;
4831;SDS011;2430;51.322;7.864;2023-02-17T14:51:11;2.10;;;1.90;;
4831;SDS011;2430;51.322;7.864;2023-02-17T14:53:38;3.10;;;1.93;;
4831;SDS011;2430;51.322;7.864;2023-02-17T14:56:06;5.27;;;2.20;;
4831;SDS011;2430;51.322;7.864;2023-02-17T14:58:33;7.40;;;2.67;;
4831;SDS011;2430;51.322;7.864;2023-02-17T15:01:01;4.73;;;2.70;;
4831;SDS011;2430;51.322;7.864;2023-02-17T15:03:27;4.43;;;2.17;;
4831;SDS011;2430;51.322;7.864;2023-02-17T15:05:55;2.60;;;2.13;;
4831;SDS011;2430;51.322;7.864;2023-02-17T15:08:23;3.60;;;2.70;;
4831;SDS011;2430;51.322;7.864;2023-02-17T15:10:55;4.40;;;2.47;;
4831;SDS011;2430;51.322;7.864;2023-02-17T15:13:22;3.00;;;2.33;;
4831;SDS011;2430;51.322;7.864;2023-02-17T15:15:49;3.20;;;2.90;;
4831;SDS011;2430;51.322;7.864;2023-02-17T15:18:17;11.47;;;3.10;;
4831;SDS011;2430;51.322;7.864;2023-02-17T15:20:44;5.30;;;1.83;;
4831;SDS011;2430;51.322;7.864;2023-02-17T15:23:13;3.40;;;2.37;;
4831;SDS011;2430;51.322;7.864;2023-02-17T15:25:40;3.30;;;2.00;;
4831;SDS011;2430;51.322;7.864;2023-02-17T15:28:06;3.87;;;2.47;;
4831;SDS011;2430;51.322;7.864;2023-02-17T15:30:33;2.30;;;2.10;;